createdAt,value
2023-03-29T00:01:04.440Z,15.6
2023-03-29T00:13:04.516Z,15.5
2023-03-29T00:25:04.472Z,15.5
2023-03-29T00:37:04.425Z,15.5
2023-03-29T00:49:04.564Z,15.4
2023-03-29T01:01:04.704Z,15.5
2023-03-29T01:13:04.478Z,15.5
2023-03-29T01:25:04.491Z,15.4
2023-03-29T01:37:04.644Z,15.4
2023-03-29T01:49:04.575Z,15.4
2023-03-29T02:01:04.640Z,15.4
2023-03-29T02:13:04.486Z,15.4
2023-03-29T02:25:04.757Z,15.4
2023-03-29T02:37:04.608Z,15.3
2023-03-29T02:49:04.542Z,15.4
2023-03-29T03:01:04.746Z,15.3
2023-03-29T03:13:04.660Z,15.4
2023-03-29T03:25:04.666Z,15.3
2023-03-29T03:37:04.566Z,15.3
2023-03-29T03:49:04.752Z,15.4
2023-03-29T04:01:04.683Z,15.4
2023-03-29T04:13:04.667Z,15.4
2023-03-29T04:25:04.616Z,15.3
2023-03-29T04:37:04.785Z,15.4
2023-03-29T04:49:04.721Z,15.3
2023-03-29T05:01:04.790Z,15.3
2023-03-29T05:13:04.831Z,15.3
2023-03-29T05:25:04.831Z,15.3
2023-03-29T05:37:04.740Z,15.4
2023-03-29T05:49:04.730Z,15.3
2023-03-29T06:01:04.994Z,15.3
2023-03-29T06:13:04.850Z,15.3
2023-03-29T06:25:04.810Z,15.3
2023-03-29T06:37:04.765Z,15.7
2023-03-29T06:49:04.897Z,17.7
2023-03-29T07:01:05.244Z,17.1
2023-03-29T07:13:04.802Z,16.7
2023-03-29T07:25:05.019Z,16.4
2023-03-29T07:37:04.910Z,16.2
2023-03-29T07:49:04.891Z,16.1
2023-03-29T08:01:05.174Z,16
2023-03-29T08:13:05.019Z,15.9
2023-03-29T08:25:04.969Z,15.9
2023-03-29T08:37:04.958Z,15.9
2023-03-29T08:49:04.869Z,15.9
2023-03-29T09:01:05.176Z,15.9
2023-03-29T09:13:04.997Z,16.1
2023-03-29T09:25:04.978Z,16.1
2023-03-29T09:37:05.087Z,16.2
2023-03-29T09:49:05.596Z,16.2
2023-03-29T10:01:05.470Z,16.2
2023-03-29T10:13:05.019Z,16.3
2023-03-29T10:25:05.159Z,16.3
2023-03-29T10:37:05.128Z,16.3
2023-03-29T10:49:05.076Z,16.3
2023-03-29T11:01:05.335Z,16.3
2023-03-29T11:13:05.291Z,16.3
2023-03-29T11:25:05.409Z,16.2
2023-03-29T11:37:05.210Z,16.2
2023-03-29T11:49:05.212Z,16.2
2023-03-29T12:01:05.214Z,16.2
2023-03-29T12:13:05.220Z,16.2
2023-03-29T12:25:05.146Z,16.2
2023-03-29T12:37:05.307Z,16.2
2023-03-29T12:49:05.233Z,16.1
2023-03-29T13:01:05.862Z,16.3
2023-03-29T13:13:05.134Z,16.4
2023-03-29T13:25:05.352Z,16.4
2023-03-29T13:37:05.256Z,16.5
2023-03-29T13:49:05.254Z,16.6
2023-03-29T14:01:05.209Z,16.6
2023-03-29T14:13:05.346Z,16.5
2023-03-29T14:25:05.291Z,16.4
2023-03-29T14:37:05.267Z,16.5
2023-03-29T14:49:05.391Z,16.5
2023-03-29T15:01:05.387Z,16.6
2023-03-29T15:13:05.300Z,16.6
2023-03-29T15:25:05.326Z,17
2023-03-29T15:37:05.429Z,16.9
2023-03-29T15:49:05.406Z,16.9
2023-03-29T16:01:05.385Z,16.8
2023-03-29T16:13:05.374Z,16.8
2023-03-29T16:25:05.527Z,16.8
2023-03-29T16:37:05.491Z,16.8
2023-03-29T16:49:05.405Z,16.8
2023-03-29T17:01:05.417Z,16.7
2023-03-29T17:13:05.545Z,16.7
2023-03-29T17:25:05.566Z,16.8
2023-03-29T17:37:06.489Z,16.8
2023-03-29T17:49:05.606Z,16.8
2023-03-29T18:01:05.604Z,16.8
2023-03-29T18:13:05.538Z,16.8
2023-03-29T18:25:05.584Z,16.9
2023-03-29T18:37:05.658Z,16.8
2023-03-29T18:49:05.680Z,16.8
2023-03-29T19:01:05.578Z,16.8
2023-03-29T19:13:05.530Z,16.8
2023-03-29T19:25:05.706Z,16.8
2023-03-29T19:37:05.658Z,16.9
2023-03-29T19:49:05.833Z,17
2023-03-29T20:01:05.622Z,16.8
2023-03-29T20:13:05.729Z,16.8
2023-03-29T20:25:05.666Z,16.8
2023-03-29T20:37:05.697Z,16.9
2023-03-29T20:49:05.748Z,16.9
2023-03-29T21:01:05.930Z,16.9
2023-03-29T21:13:05.785Z,16.8
2023-03-29T21:25:05.689Z,17
2023-03-29T21:37:05.933Z,16.9
2023-03-29T21:49:05.771Z,16.9
2023-03-29T22:01:05.842Z,17
2023-03-29T22:13:05.703Z,16.9
2023-03-29T22:25:05.868Z,16.8
2023-03-29T22:37:05.819Z,16.8
2023-03-29T22:49:05.721Z,16.6
2023-03-29T23:01:06.229Z,16.8
2023-03-29T23:13:05.860Z,16.7
2023-03-29T23:25:05.858Z,16.7
2023-03-29T23:37:05.757Z,16.7
2023-03-29T23:49:05.809Z,16.7
